Detalii statie SCHWAB AGRO ARDUD [00001CF5]

Toti senzorii

Date Temperatura solului [C]Precipitatii [mm]Voltaj baterie [mV]Leaf Wetness [Min]HC Air temperature [C]HC Relative humidity [%]Punctul de roua [C]
medieminmaxsumaultimatimpmedieminmaxmediemediemin
2017-12-10 21:00:00 0 6532 -1.66 -2.08 -1.22 0 0 0
2017-12-10 22:00:00 0 6522 -0.57 -1.1 -0.13 0 0 0
2017-12-10 23:00:00 0 6532 0.08 -0.25 0.35 0 0 0
2017-12-11 00:00:00 0 6522 0.43 0.32 0.68 0 0 0
2017-12-11 01:00:00 0 6522 0.56 0.39 0.7 0 0 0
2017-12-11 02:00:00 0 6532 0.77 0.65 0.96 0 0 0
2017-12-11 03:00:00 0 6532 1.09 0.92 1.31 0 0 0
2017-12-11 04:00:00 0 6532 0.98 0.07 1.5 0 0 0
2017-12-11 05:00:00 0 6532 -0.06 -0.12 0 0 0 0
2017-12-11 06:00:00 0 6522 0.38 0.14 0.63 0 0 0
2017-12-11 07:00:00 0 6522 0.64 0.52 0.72 0 0 0
2017-12-11 08:00:00 1 6522 0.78 0.73 0.88 0 0 0
2017-12-11 09:00:00 1.2 6522 1.04 0.9 1.22 0 0 0
2017-12-11 10:00:00 0.4 6522 1.74 1.26 2.26 0 0 0
2017-12-11 11:00:00 0.4 6532 2.63 2.35 2.81 0 0 0
2017-12-11 12:00:00 0 6532 3.31 2.94 3.64 0 0 0
2017-12-11 13:00:00 0 6562 4.61 3.83 5.67 0 0 0
2017-12-11 14:00:00 0 6552 5.65 5.45 5.92 0 0 0
2017-12-11 15:00:00 0 6542 5.81 5.5 6.05 0 0 0
2017-12-11 16:00:00 0 6532 5.81 5.68 5.92 0 0 0
2017-12-11 17:00:00 0 6532 5.73 5.59 5.89 0 0 0
2017-12-11 18:00:00 0 6532 6.15 5.74 6.51 0 0 0
2017-12-11 19:00:00 0 6532 6.89 6.58 7.06 0 0 0
2017-12-11 20:00:00 0 6532 7.24 6.98 7.43 0 0 0
2017-12-11 21:00:00 0 6532 7.07 6.81 7.27 0 0 0
2017-12-11 22:00:00 0 6532 6.96 6.82 7.14 0 0 0
2017-12-11 23:00:00 0 6532 6.75 6.58 6.9 0 0 0
2017-12-12 00:00:00 0 6532 6.63 6.36 6.75 0 0 0
2017-12-12 01:00:00 0 6532 6.94 6.7 7.3 0 0 0
2017-12-12 02:00:00 0 6532 7.22 6.76 7.8 0 0 0
2017-12-12 03:00:00 0 6532 7.5 7.21 7.67 0 0 0
2017-12-12 04:00:00 0 6532 7.13 6.79 7.5 0 0 0
2017-12-12 05:00:00 0 6532 7.02 6.81 7.18 0 0 0
2017-12-12 06:00:00 0 6532 6.61 6.35 7.18 0 0 0
2017-12-12 07:00:00 0 6532 6.64 6.29 7.02 0 0 0
2017-12-12 08:00:00 0 6532 6.65 6.49 7.01 0 0 0
2017-12-12 09:00:00 0 6532 7.25 6.9 7.59 0 0 0
2017-12-12 10:00:00 0 6532 8.18 7.2 8.54 0 0 0
2017-12-12 11:00:00 0 6542 9.59 8.96 10.19 0 0 0
2017-12-12 12:00:00 0 6542 10.49 10.22 10.9 0 0 0
2017-12-12 13:00:00 0 6552 11.5 10.62 12.52 0 0 0
2017-12-12 14:00:00 0 6552 11.79 11.41 12.23 0 0 0
2017-12-12 15:00:00 0 6552 11.76 11.63 11.86 0 0 0
2017-12-12 16:00:00 0 6542 12.18 11.52 12.58 0 0 0
2017-12-12 17:00:00 0 6542 10.7 10.53 11.07 0 0 0
2017-12-12 18:00:00 0 6532 12.37 11.4 13.06 0 0 0
2017-12-12 19:00:00 0 6532 12.67 11.71 13.28 0 0 0